sensor_id;sensor_type;location;lat;lon;timestamp;temperature;humidity
17879;DHT22;9065;51.050;13.758;2023-02-01T00:01:10;7.00;99.90
17879;DHT22;9065;51.050;13.758;2023-02-01T00:03:37;7.00;99.90
17879;DHT22;9065;51.050;13.758;2023-02-01T00:06:04;6.90;99.90
17879;DHT22;9065;51.050;13.758;2023-02-01T00:08:31;6.80;99.90
17879;DHT22;9065;51.050;13.758;2023-02-01T00:10:59;6.80;99.90
17879;DHT22;9065;51.050;13.758;2023-02-01T00:13:28;6.80;99.90
17879;DHT22;9065;51.050;13.758;2023-02-01T00:16:03;6.80;99.90
17879;DHT22;9065;51.050;13.758;2023-02-01T00:18:31;6.80;99.90
17879;DHT22;9065;51.050;13.758;2023-02-01T00:20:58;6.90;99.90
17879;DHT22;9065;51.050;13.758;2023-02-01T00:23:25;6.90;99.90
17879;DHT22;9065;51.050;13.758;2023-02-01T00:25:51;6.90;99.90
17879;DHT22;9065;51.050;13.758;2023-02-01T00:28:19;6.90;99.90
17879;DHT22;9065;51.050;13.758;2023-02-01T00:30:54;6.90;99.90
17879;DHT22;9065;51.050;13.758;2023-02-01T00:33:23;6.90;99.90
17879;DHT22;9065;51.050;13.758;2023-02-01T00:35:51;6.90;99.90
17879;DHT22;9065;51.050;13.758;2023-02-01T00:38:18;7.00;99.90
17879;DHT22;9065;51.050;13.758;2023-02-01T00:40:46;7.00;99.90
17879;DHT22;9065;51.050;13.758;2023-02-01T00:43:14;7.00;99.90
17879;DHT22;9065;51.050;13.758;2023-02-01T00:45:40;7.10;99.90
17879;DHT22;9065;51.050;13.758;2023-02-01T00:48:07;7.20;99.90
17879;DHT22;9065;51.050;13.758;2023-02-01T00:50:35;7.20;99.90
17879;DHT22;9065;51.050;13.758;2023-02-01T00:53:02;7.20;99.90
17879;DHT22;9065;51.050;13.758;2023-02-01T00:55:28;7.10;99.90
17879;DHT22;9065;51.050;13.758;2023-02-01T00:57:56;7.10;99.90
17879;DHT22;9065;51.050;13.758;2023-02-01T01:00:23;7.10;99.90
17879;DHT22;9065;51.050;13.758;2023-02-01T01:02:50;7.10;99.90
17879;DHT22;9065;51.050;13.758;2023-02-01T01:05:16;7.10;99.90
17879;DHT22;9065;51.050;13.758;2023-02-01T01:07:44;7.00;99.90
17879;DHT22;9065;51.050;13.758;2023-02-01T01:10:11;7.00;99.90
17879;DHT22;9065;51.050;13.758;2023-02-01T01:12:38;7.00;99.90
17879;DHT22;9065;51.050;13.758;2023-02-01T01:15:06;7.00;99.90
17879;DHT22;9065;51.050;13.758;2023-02-01T01:17:34;7.00;99.90
17879;DHT22;9065;51.050;13.758;2023-02-01T01:20:00;7.00;99.90
17879;DHT22;9065;51.050;13.758;2023-02-01T01:22:29;6.90;99.90
17879;DHT22;9065;51.050;13.758;2023-02-01T01:25:01;6.90;99.90
17879;DHT22;9065;51.050;13.758;2023-02-01T01:27:28;7.00;99.90
17879;DHT22;9065;51.050;13.758;2023-02-01T01:30:00;7.00;99.90
17879;DHT22;9065;51.050;13.758;2023-02-01T01:32:27;7.00;99.90
17879;DHT22;9065;51.050;13.758;2023-02-01T01:34:55;7.00;99.90
17879;DHT22;9065;51.050;13.758;2023-02-01T01:37:22;7.00;99.90
17879;DHT22;9065;51.050;13.758;2023-02-01T01:39:48;7.00;99.90
17879;DHT22;9065;51.050;13.758;2023-02-01T01:42:17;7.00;99.90
17879;DHT22;9065;51.050;13.758;2023-02-01T01:44:58;7.10;99.90
17879;DHT22;9065;51.050;13.758;2023-02-01T01:47:26;7.00;99.90
17879;DHT22;9065;51.050;13.758;2023-02-01T01:49:55;7.00;99.90
17879;DHT22;9065;51.050;13.758;2023-02-01T01:52:22;7.00;99.90
17879;DHT22;9065;51.050;13.758;2023-02-01T01:54:51;7.00;99.90
17879;DHT22;9065;51.050;13.758;2023-02-01T01:57:28;7.00;99.90
17879;DHT22;9065;51.050;13.758;2023-02-01T02:00:03;7.00;99.90
17879;DHT22;9065;51.050;13.758;2023-02-01T02:02:31;7.10;99.90
17879;DHT22;9065;51.050;13.758;2023-02-01T02:05:01;7.10;99.90
17879;DHT22;9065;51.050;13.758;2023-02-01T02:07:30;7.10;99.90
17879;DHT22;9065;51.050;13.758;2023-02-01T02:09:58;7.10;99.90
17879;DHT22;9065;51.050;13.758;2023-02-01T02:12:26;7.00;99.90
17879;DHT22;9065;51.050;13.758;2023-02-01T02:14:54;7.00;99.90
17879;DHT22;9065;51.050;13.758;2023-02-01T02:17:30;7.00;99.90
17879;DHT22;9065;51.050;13.758;2023-02-01T02:20:39;7.00;99.90
17879;DHT22;9065;51.050;13.758;2023-02-01T02:26:34;7.10;99.90
17879;DHT22;9065;51.050;13.758;2023-02-01T02:29:38;7.10;99.90
17879;DHT22;9065;51.050;13.758;2023-02-01T02:32:44;7.00;99.90
17879;DHT22;9065;51.050;13.758;2023-02-01T02:35:27;7.00;99.90
17879;DHT22;9065;51.050;13.758;2023-02-01T02:38:02;7.00;99.90
17879;DHT22;9065;51.050;13.758;2023-02-01T02:40:34;6.90;99.90
17879;DHT22;9065;51.050;13.758;2023-02-01T02:43:09;7.00;99.90
17879;DHT22;9065;51.050;13.758;2023-02-01T02:46:00;7.00;99.90
17879;DHT22;9065;51.050;13.758;2023-02-01T02:48:58;7.00;99.90
17879;DHT22;9065;51.050;13.758;2023-02-01T02:51:32;6.90;99.90
17879;DHT22;9065;51.050;13.758;2023-02-01T02:54:23;6.90;99.90
17879;DHT22;9065;51.050;13.758;2023-02-01T02:57:12;6.90;99.90
17879;DHT22;9065;51.050;13.758;2023-02-01T02:59:57;6.90;99.90
17879;DHT22;9065;51.050;13.758;2023-02-01T03:02:43;6.90;99.90
17879;DHT22;9065;51.050;13.758;2023-02-01T03:05:32;6.90;99.90
17879;DHT22;9065;51.050;13.758;2023-02-01T03:08:09;6.90;99.90
17879;DHT22;9065;51.050;13.758;2023-02-01T03:10:42;6.90;99.90
17879;DHT22;9065;51.050;13.758;2023-02-01T03:13:13;6.90;99.90
17879;DHT22;9065;51.050;13.758;2023-02-01T03:15:48;6.90;99.90
17879;DHT22;9065;51.050;13.758;2023-02-01T03:18:26;6.90;99.90
17879;DHT22;9065;51.050;13.758;2023-02-01T03:20:55;6.90;99.90
17879;DHT22;9065;51.050;13.758;2023-02-01T03:23:28;6.90;99.90
17879;DHT22;9065;51.050;13.758;2023-02-01T03:25:58;7.00;99.90
17879;DHT22;9065;51.050;13.758;2023-02-01T03:28:28;6.90;99.90
17879;DHT22;9065;51.050;13.758;2023-02-01T03:30:57;6.90;99.90
17879;DHT22;9065;51.050;13.758;2023-02-01T03:33:25;6.90;99.90
17879;DHT22;9065;51.050;13.758;2023-02-01T03:36:05;7.00;99.90
17879;DHT22;9065;51.050;13.758;2023-02-01T03:38:40;7.00;99.90
17879;DHT22;9065;51.050;13.758;2023-02-01T03:41:15;7.10;99.90
17879;DHT22;9065;51.050;13.758;2023-02-01T03:43:51;7.10;99.90
17879;DHT22;9065;51.050;13.758;2023-02-01T03:46:25;7.20;99.90
17879;DHT22;9065;51.050;13.758;2023-02-01T03:48:59;7.20;99.90
17879;DHT22;9065;51.050;13.758;2023-02-01T03:51:26;7.20;99.90
17879;DHT22;9065;51.050;13.758;2023-02-01T03:53:55;7.20;99.90
17879;DHT22;9065;51.050;13.758;2023-02-01T03:56:25;7.10;99.90
17879;DHT22;9065;51.050;13.758;2023-02-01T03:58:53;7.10;99.90
17879;DHT22;9065;51.050;13.758;2023-02-01T04:01:27;7.20;99.90
17879;DHT22;9065;51.050;13.758;2023-02-01T04:03:55;7.20;99.90
17879;DHT22;9065;51.050;13.758;2023-02-01T04:06:22;7.20;99.90
17879;DHT22;9065;51.050;13.758;2023-02-01T04:08:49;7.20;99.90
17879;DHT22;9065;51.050;13.758;2023-02-01T04:11:17;7.20;99.90
17879;DHT22;9065;51.050;13.758;2023-02-01T04:13:45;7.20;99.90
17879;DHT22;9065;51.050;13.758;2023-02-01T04:16:12;7.20;99.90
17879;DHT22;9065;51.050;13.758;2023-02-01T04:18:38;7.20;99.90
17879;DHT22;9065;51.050;13.758;2023-02-01T04:21:05;7.20;99.90
17879;DHT22;9065;51.050;13.758;2023-02-01T04:23:33;7.20;99.90
17879;DHT22;9065;51.050;13.758;2023-02-01T04:26:03;7.20;99.90
17879;DHT22;9065;51.050;13.758;2023-02-01T04:28:32;7.20;99.90
17879;DHT22;9065;51.050;13.758;2023-02-01T04:30:59;7.20;99.90
17879;DHT22;9065;51.050;13.758;2023-02-01T04:33:26;7.20;99.90
17879;DHT22;9065;51.050;13.758;2023-02-01T04:35:52;7.20;99.90
17879;DHT22;9065;51.050;13.758;2023-02-01T04:38:19;7.20;99.90
17879;DHT22;9065;51.050;13.758;2023-02-01T04:40:47;7.20;99.90
17879;DHT22;9065;51.050;13.758;2023-02-01T04:43:14;7.20;99.90
17879;DHT22;9065;51.050;13.758;2023-02-01T04:45:46;7.10;99.90
17879;DHT22;9065;51.050;13.758;2023-02-01T04:48:13;7.10;99.90
17879;DHT22;9065;51.050;13.758;2023-02-01T04:50:40;7.10;99.90
17879;DHT22;9065;51.050;13.758;2023-02-01T04:53:06;7.10;99.90
17879;DHT22;9065;51.050;13.758;2023-02-01T04:55:33;7.10;99.90
17879;DHT22;9065;51.050;13.758;2023-02-01T04:58:00;7.10;99.90
17879;DHT22;9065;51.050;13.758;2023-02-01T05:00:27;7.10;99.90
17879;DHT22;9065;51.050;13.758;2023-02-01T05:02:55;7.20;99.90
17879;DHT22;9065;51.050;13.758;2023-02-01T05:05:22;7.10;99.90
17879;DHT22;9065;51.050;13.758;2023-02-01T05:07:49;7.20;99.90
17879;DHT22;9065;51.050;13.758;2023-02-01T05:10:18;7.20;99.90
17879;DHT22;9065;51.050;13.758;2023-02-01T05:12:45;7.20;99.90
17879;DHT22;9065;51.050;13.758;2023-02-01T05:15:33;7.10;99.90
17879;DHT22;9065;51.050;13.758;2023-02-01T05:18:01;7.20;99.90
17879;DHT22;9065;51.050;13.758;2023-02-01T05:20:27;7.20;99.90
17879;DHT22;9065;51.050;13.758;2023-02-01T05:22:54;7.20;99.90
17879;DHT22;9065;51.050;13.758;2023-02-01T05:25:21;7.20;99.90
17879;DHT22;9065;51.050;13.758;2023-02-01T05:27:48;7.20;99.90
17879;DHT22;9065;51.050;13.758;2023-02-01T05:30:15;7.20;99.90
17879;DHT22;9065;51.050;13.758;2023-02-01T05:32:44;7.20;99.90
17879;DHT22;9065;51.050;13.758;2023-02-01T05:35:13;7.20;99.90
17879;DHT22;9065;51.050;13.758;2023-02-01T05:37:40;7.20;99.90
17879;DHT22;9065;51.050;13.758;2023-02-01T05:40:07;7.20;99.90
17879;DHT22;9065;51.050;13.758;2023-02-01T05:42:34;7.20;99.90
17879;DHT22;9065;51.050;13.758;2023-02-01T05:45:03;7.20;99.90
17879;DHT22;9065;51.050;13.758;2023-02-01T05:47:30;7.30;99.90
17879;DHT22;9065;51.050;13.758;2023-02-01T05:50:04;7.40;99.90
17879;DHT22;9065;51.050;13.758;2023-02-01T05:52:32;7.20;99.90
17879;DHT22;9065;51.050;13.758;2023-02-01T05:55:00;7.30;99.90
17879;DHT22;9065;51.050;13.758;2023-02-01T05:57:29;7.30;99.90
17879;DHT22;9065;51.050;13.758;2023-02-01T05:59:56;7.40;99.90
17879;DHT22;9065;51.050;13.758;2023-02-01T06:02:23;7.40;99.90
17879;DHT22;9065;51.050;13.758;2023-02-01T06:04:50;7.40;99.90
17879;DHT22;9065;51.050;13.758;2023-02-01T06:07:17;7.40;99.90
17879;DHT22;9065;51.050;13.758;2023-02-01T06:09:47;7.40;99.90
17879;DHT22;9065;51.050;13.758;2023-02-01T06:12:20;7.30;99.90
17879;DHT22;9065;51.050;13.758;2023-02-01T06:14:47;7.40;99.90
17879;DHT22;9065;51.050;13.758;2023-02-01T06:17:13;7.40;99.90
17879;DHT22;9065;51.050;13.758;2023-02-01T06:19:42;7.40;99.90
17879;DHT22;9065;51.050;13.758;2023-02-01T06:22:16;7.50;99.90
17879;DHT22;9065;51.050;13.758;2023-02-01T06:24:43;7.50;99.90
17879;DHT22;9065;51.050;13.758;2023-02-01T06:27:13;7.50;99.90
17879;DHT22;9065;51.050;13.758;2023-02-01T06:29:40;7.40;99.90
17879;DHT22;9065;51.050;13.758;2023-02-01T06:32:08;7.40;99.90
17879;DHT22;9065;51.050;13.758;2023-02-01T06:34:37;7.30;99.90
17879;DHT22;9065;51.050;13.758;2023-02-01T06:37:07;7.30;99.90
17879;DHT22;9065;51.050;13.758;2023-02-01T06:39:34;7.40;99.90
17879;DHT22;9065;51.050;13.758;2023-02-01T06:42:03;7.50;99.90
17879;DHT22;9065;51.050;13.758;2023-02-01T06:44:35;7.40;99.90
17879;DHT22;9065;51.050;13.758;2023-02-01T06:47:03;7.50;99.90
17879;DHT22;9065;51.050;13.758;2023-02-01T06:49:30;7.50;99.90
17879;DHT22;9065;51.050;13.758;2023-02-01T06:51:59;7.40;99.90
17879;DHT22;9065;51.050;13.758;2023-02-01T06:54:27;7.50;99.90
17879;DHT22;9065;51.050;13.758;2023-02-01T06:56:55;7.40;99.90
17879;DHT22;9065;51.050;13.758;2023-02-01T06:59:24;7.40;99.90
17879;DHT22;9065;51.050;13.758;2023-02-01T07:01:52;7.40;99.90
17879;DHT22;9065;51.050;13.758;2023-02-01T07:04:20;7.40;99.90
17879;DHT22;9065;51.050;13.758;2023-02-01T07:06:47;7.40;99.90
17879;DHT22;9065;51.050;13.758;2023-02-01T07:09:16;7.40;99.90
17879;DHT22;9065;51.050;13.758;2023-02-01T07:11:44;7.40;99.90
17879;DHT22;9065;51.050;13.758;2023-02-01T07:14:11;7.40;99.90
17879;DHT22;9065;51.050;13.758;2023-02-01T07:16:38;7.30;99.90
17879;DHT22;9065;51.050;13.758;2023-02-01T07:19:06;7.30;99.90
17879;DHT22;9065;51.050;13.758;2023-02-01T07:21:33;7.20;99.90
17879;DHT22;9065;51.050;13.758;2023-02-01T07:24:00;7.40;99.90
17879;DHT22;9065;51.050;13.758;2023-02-01T07:26:27;7.40;99.90
17879;DHT22;9065;51.050;13.758;2023-02-01T07:28:54;7.40;99.90
17879;DHT22;9065;51.050;13.758;2023-02-01T07:31:22;7.40;99.90
17879;DHT22;9065;51.050;13.758;2023-02-01T07:33:50;7.40;99.90
17879;DHT22;9065;51.050;13.758;2023-02-01T07:36:23;7.30;99.90
17879;DHT22;9065;51.050;13.758;2023-02-01T07:38:49;7.30;99.90
17879;DHT22;9065;51.050;13.758;2023-02-01T07:41:18;7.30;99.90
17879;DHT22;9065;51.050;13.758;2023-02-01T07:43:45;7.20;99.90
17879;DHT22;9065;51.050;13.758;2023-02-01T07:46:12;7.20;99.90
17879;DHT22;9065;51.050;13.758;2023-02-01T07:48:41;7.20;99.90
17879;DHT22;9065;51.050;13.758;2023-02-01T07:51:10;7.10;99.90
17879;DHT22;9065;51.050;13.758;2023-02-01T07:53:41;7.10;99.90
17879;DHT22;9065;51.050;13.758;2023-02-01T07:56:11;7.10;99.90
17879;DHT22;9065;51.050;13.758;2023-02-01T07:58:39;7.00;99.90
17879;DHT22;9065;51.050;13.758;2023-02-01T08:01:14;7.10;99.90
17879;DHT22;9065;51.050;13.758;2023-02-01T08:03:47;7.10;99.90
17879;DHT22;9065;51.050;13.758;2023-02-01T08:06:15;7.00;99.90
17879;DHT22;9065;51.050;13.758;2023-02-01T08:08:50;6.90;99.90
17879;DHT22;9065;51.050;13.758;2023-02-01T08:11:23;6.90;99.90
17879;DHT22;9065;51.050;13.758;2023-02-01T08:13:52;7.00;99.90
17879;DHT22;9065;51.050;13.758;2023-02-01T08:16:20;7.10;99.90
17879;DHT22;9065;51.050;13.758;2023-02-01T08:18:47;7.10;99.90
17879;DHT22;9065;51.050;13.758;2023-02-01T08:21:16;7.20;99.90
17879;DHT22;9065;51.050;13.758;2023-02-01T08:23:44;7.20;99.90
17879;DHT22;9065;51.050;13.758;2023-02-01T08:26:20;7.20;99.90
17879;DHT22;9065;51.050;13.758;2023-02-01T08:28:54;7.20;99.90
17879;DHT22;9065;51.050;13.758;2023-02-01T08:31:24;7.20;99.90
17879;DHT22;9065;51.050;13.758;2023-02-01T08:33:55;7.10;99.90
17879;DHT22;9065;51.050;13.758;2023-02-01T08:36:23;7.10;99.90
17879;DHT22;9065;51.050;13.758;2023-02-01T08:38:51;7.00;99.90
17879;DHT22;9065;51.050;13.758;2023-02-01T08:41:22;7.00;99.90
17879;DHT22;9065;51.050;13.758;2023-02-01T08:43:50;7.10;99.90
17879;DHT22;9065;51.050;13.758;2023-02-01T08:46:17;7.20;99.90
17879;DHT22;9065;51.050;13.758;2023-02-01T08:48:46;7.10;99.90
17879;DHT22;9065;51.050;13.758;2023-02-01T08:51:14;7.30;99.90
17879;DHT22;9065;51.050;13.758;2023-02-01T08:53:41;7.40;99.90
17879;DHT22;9065;51.050;13.758;2023-02-01T08:56:09;7.40;99.90
17879;DHT22;9065;51.050;13.758;2023-02-01T08:58:37;7.40;99.90
17879;DHT22;9065;51.050;13.758;2023-02-01T09:01:09;7.60;99.90
17879;DHT22;9065;51.050;13.758;2023-02-01T09:03:38;7.70;99.90
17879;DHT22;9065;51.050;13.758;2023-02-01T09:06:09;7.80;99.90
17879;DHT22;9065;51.050;13.758;2023-02-01T09:08:38;7.90;99.90
17879;DHT22;9065;51.050;13.758;2023-02-01T09:11:08;8.10;99.90
17879;DHT22;9065;51.050;13.758;2023-02-01T09:13:36;8.10;99.90
17879;DHT22;9065;51.050;13.758;2023-02-01T09:16:03;8.20;99.90
17879;DHT22;9065;51.050;13.758;2023-02-01T09:18:32;8.30;99.90
17879;DHT22;9065;51.050;13.758;2023-02-01T09:20:59;8.20;99.90
17879;DHT22;9065;51.050;13.758;2023-02-01T09:23:27;8.20;99.90
17879;DHT22;9065;51.050;13.758;2023-02-01T09:25:58;8.20;99.90
17879;DHT22;9065;51.050;13.758;2023-02-01T09:28:25;8.00;99.90
17879;DHT22;9065;51.050;13.758;2023-02-01T09:30:57;8.00;99.90
17879;DHT22;9065;51.050;13.758;2023-02-01T09:33:26;8.10;99.90
17879;DHT22;9065;51.050;13.758;2023-02-01T09:35:56;8.00;99.90
17879;DHT22;9065;51.050;13.758;2023-02-01T09:38:25;8.00;99.90
17879;DHT22;9065;51.050;13.758;2023-02-01T09:40:54;7.90;99.90
17879;DHT22;9065;51.050;13.758;2023-02-01T09:43:29;8.00;99.90
17879;DHT22;9065;51.050;13.758;2023-02-01T09:46:16;8.20;99.90
17879;DHT22;9065;51.050;13.758;2023-02-01T09:48:45;8.10;99.90
17879;DHT22;9065;51.050;13.758;2023-02-01T09:51:15;8.10;99.90
17879;DHT22;9065;51.050;13.758;2023-02-01T09:53:46;7.70;99.90
17879;DHT22;9065;51.050;13.758;2023-02-01T09:56:21;7.40;99.90
17879;DHT22;9065;51.050;13.758;2023-02-01T09:58:54;7.20;99.90
17879;DHT22;9065;51.050;13.758;2023-02-01T10:01:25;6.90;99.90
17879;DHT22;9065;51.050;13.758;2023-02-01T10:03:58;6.90;99.90
17879;DHT22;9065;51.050;13.758;2023-02-01T10:06:36;6.80;99.90
17879;DHT22;9065;51.050;13.758;2023-02-01T10:09:20;6.60;99.90
17879;DHT22;9065;51.050;13.758;2023-02-01T10:12:16;6.60;99.90
17879;DHT22;9065;51.050;13.758;2023-02-01T10:15:10;6.50;99.90
17879;DHT22;9065;51.050;13.758;2023-02-01T10:17:56;6.50;99.90
17879;DHT22;9065;51.050;13.758;2023-02-01T10:20:31;6.40;99.90
17879;DHT22;9065;51.050;13.758;2023-02-01T10:23:25;6.50;99.90
17879;DHT22;9065;51.050;13.758;2023-02-01T10:26:00;6.50;99.90
17879;DHT22;9065;51.050;13.758;2023-02-01T10:28:37;6.50;99.90
17879;DHT22;9065;51.050;13.758;2023-02-01T10:31:08;6.50;99.90
17879;DHT22;9065;51.050;13.758;2023-02-01T10:33:44;6.50;99.90
17879;DHT22;9065;51.050;13.758;2023-02-01T10:36:15;6.50;99.90
17879;DHT22;9065;51.050;13.758;2023-02-01T10:38:45;6.60;99.90
17879;DHT22;9065;51.050;13.758;2023-02-01T10:41:14;6.70;99.90
17879;DHT22;9065;51.050;13.758;2023-02-01T10:43:46;6.80;99.90
17879;DHT22;9065;51.050;13.758;2023-02-01T10:46:18;6.80;99.90
17879;DHT22;9065;51.050;13.758;2023-02-01T10:48:56;6.90;99.90
17879;DHT22;9065;51.050;13.758;2023-02-01T10:51:28;6.90;99.90
17879;DHT22;9065;51.050;13.758;2023-02-01T10:54:01;7.00;99.90
17879;DHT22;9065;51.050;13.758;2023-02-01T10:56:29;7.10;99.90
17879;DHT22;9065;51.050;13.758;2023-02-01T10:59:01;7.40;99.90
17879;DHT22;9065;51.050;13.758;2023-02-01T11:01:31;7.70;99.90
17879;DHT22;9065;51.050;13.758;2023-02-01T11:04:02;7.80;99.90
17879;DHT22;9065;51.050;13.758;2023-02-01T11:06:31;7.80;99.90
17879;DHT22;9065;51.050;13.758;2023-02-01T11:09:11;7.80;99.90
17879;DHT22;9065;51.050;13.758;2023-02-01T11:11:55;7.60;99.90
17879;DHT22;9065;51.050;13.758;2023-02-01T11:14:37;7.60;99.90
17879;DHT22;9065;51.050;13.758;2023-02-01T11:17:26;7.60;99.90
17879;DHT22;9065;51.050;13.758;2023-02-01T11:20:02;7.60;99.90
17879;DHT22;9065;51.050;13.758;2023-02-01T11:22:30;7.60;99.90
17879;DHT22;9065;51.050;13.758;2023-02-01T11:24:57;7.60;99.90
17879;DHT22;9065;51.050;13.758;2023-02-01T11:27:25;7.60;99.90
17879;DHT22;9065;51.050;13.758;2023-02-01T11:29:55;7.70;99.90
17879;DHT22;9065;51.050;13.758;2023-02-01T11:32:24;7.70;99.90
17879;DHT22;9065;51.050;13.758;2023-02-01T11:34:56;7.80;99.90
17879;DHT22;9065;51.050;13.758;2023-02-01T11:37:28;7.80;99.90
17879;DHT22;9065;51.050;13.758;2023-02-01T11:39:58;7.80;99.90
17879;DHT22;9065;51.050;13.758;2023-02-01T11:42:27;7.80;99.90
17879;DHT22;9065;51.050;13.758;2023-02-01T11:45:17;7.80;99.90
17879;DHT22;9065;51.050;13.758;2023-02-01T11:47:45;7.80;99.90
17879;DHT22;9065;51.050;13.758;2023-02-01T11:50:16;7.90;99.90
17879;DHT22;9065;51.050;13.758;2023-02-01T11:52:55;8.00;99.90
17879;DHT22;9065;51.050;13.758;2023-02-01T11:55:39;8.10;99.90
17879;DHT22;9065;51.050;13.758;2023-02-01T11:58:23;8.20;99.90
17879;DHT22;9065;51.050;13.758;2023-02-01T12:01:28;8.20;99.90
17879;DHT22;9065;51.050;13.758;2023-02-01T12:07:03;7.90;99.90
17879;DHT22;9065;51.050;13.758;2023-02-01T12:12:41;8.00;99.90
17879;DHT22;9065;51.050;13.758;2023-02-01T12:15:28;8.10;99.90
17879;DHT22;9065;51.050;13.758;2023-02-01T12:20:56;8.30;99.90
17879;DHT22;9065;51.050;13.758;2023-02-01T12:23:38;8.30;99.90
17879;DHT22;9065;51.050;13.758;2023-02-01T12:26:36;8.40;99.90
17879;DHT22;9065;51.050;13.758;2023-02-01T12:29:17;8.40;99.90
17879;DHT22;9065;51.050;13.758;2023-02-01T12:31:53;8.50;99.90
17879;DHT22;9065;51.050;13.758;2023-02-01T12:34:49;8.60;99.90
17879;DHT22;9065;51.050;13.758;2023-02-01T12:37:27;8.50;99.90
17879;DHT22;9065;51.050;13.758;2023-02-01T12:40:02;8.40;99.90
17879;DHT22;9065;51.050;13.758;2023-02-01T12:42:40;8.30;99.90
17879;DHT22;9065;51.050;13.758;2023-02-01T12:45:13;8.20;99.90
17879;DHT22;9065;51.050;13.758;2023-02-01T12:47:44;8.20;99.90
17879;DHT22;9065;51.050;13.758;2023-02-01T12:50:16;8.30;99.90
17879;DHT22;9065;51.050;13.758;2023-02-01T12:52:49;8.40;99.90
17879;DHT22;9065;51.050;13.758;2023-02-01T12:55:20;8.50;99.90
17879;DHT22;9065;51.050;13.758;2023-02-01T12:57:53;8.50;99.90
17879;DHT22;9065;51.050;13.758;2023-02-01T13:00:36;8.50;99.90
17879;DHT22;9065;51.050;13.758;2023-02-01T13:03:15;8.60;99.90
17879;DHT22;9065;51.050;13.758;2023-02-01T13:05:49;8.70;99.90
17879;DHT22;9065;51.050;13.758;2023-02-01T13:08:21;8.90;99.90
17879;DHT22;9065;51.050;13.758;2023-02-01T13:10:55;8.90;99.90
17879;DHT22;9065;51.050;13.758;2023-02-01T13:13:39;8.90;99.90
17879;DHT22;9065;51.050;13.758;2023-02-01T13:16:17;8.80;99.90
17879;DHT22;9065;51.050;13.758;2023-02-01T13:18:49;8.80;99.90
17879;DHT22;9065;51.050;13.758;2023-02-01T13:21:26;8.80;99.90
17879;DHT22;9065;51.050;13.758;2023-02-01T13:23:55;8.90;99.90
17879;DHT22;9065;51.050;13.758;2023-02-01T13:26:23;8.90;99.90
17879;DHT22;9065;51.050;13.758;2023-02-01T13:28:52;9.00;99.90
17879;DHT22;9065;51.050;13.758;2023-02-01T13:31:41;8.90;99.90
17879;DHT22;9065;51.050;13.758;2023-02-01T13:34:37;8.90;99.90
17879;DHT22;9065;51.050;13.758;2023-02-01T13:37:17;8.90;99.90
17879;DHT22;9065;51.050;13.758;2023-02-01T13:40:11;9.00;99.90
17879;DHT22;9065;51.050;13.758;2023-02-01T13:42:49;9.00;99.90
17879;DHT22;9065;51.050;13.758;2023-02-01T13:45:20;8.90;99.90
17879;DHT22;9065;51.050;13.758;2023-02-01T13:47:51;8.80;99.90
17879;DHT22;9065;51.050;13.758;2023-02-01T13:50:22;8.90;99.90
17879;DHT22;9065;51.050;13.758;2023-02-01T13:52:56;8.80;99.90
17879;DHT22;9065;51.050;13.758;2023-02-01T13:55:29;8.80;99.90
17879;DHT22;9065;51.050;13.758;2023-02-01T13:58:15;8.90;99.90
17879;DHT22;9065;51.050;13.758;2023-02-01T14:00:43;9.00;99.90
17879;DHT22;9065;51.050;13.758;2023-02-01T14:03:18;9.00;99.90
17879;DHT22;9065;51.050;13.758;2023-02-01T14:06:16;9.00;99.90
17879;DHT22;9065;51.050;13.758;2023-02-01T14:09:11;9.00;99.90
17879;DHT22;9065;51.050;13.758;2023-02-01T14:11:41;9.00;99.90
17879;DHT22;9065;51.050;13.758;2023-02-01T14:23:29;9.00;99.90
17879;DHT22;9065;51.050;13.758;2023-02-01T14:26:16;8.90;99.90
17879;DHT22;9065;51.050;13.758;2023-02-01T14:29:02;8.90;99.90
17879;DHT22;9065;51.050;13.758;2023-02-01T14:31:41;8.90;99.90
17879;DHT22;9065;51.050;13.758;2023-02-01T14:34:21;8.90;99.90
17879;DHT22;9065;51.050;13.758;2023-02-01T14:36:52;8.90;99.90
17879;DHT22;9065;51.050;13.758;2023-02-01T14:39:29;8.80;99.90
17879;DHT22;9065;51.050;13.758;2023-02-01T14:41:59;8.80;99.90
17879;DHT22;9065;51.050;13.758;2023-02-01T14:44:32;8.70;99.90
17879;DHT22;9065;51.050;13.758;2023-02-01T14:50:31;8.60;99.90
17879;DHT22;9065;51.050;13.758;2023-02-01T14:53:14;8.60;99.90
17879;DHT22;9065;51.050;13.758;2023-02-01T14:55:48;8.60;99.90
17879;DHT22;9065;51.050;13.758;2023-02-01T14:58:20;8.60;99.90
17879;DHT22;9065;51.050;13.758;2023-02-01T15:00:54;8.60;99.90
17879;DHT22;9065;51.050;13.758;2023-02-01T15:03:36;8.60;99.90
17879;DHT22;9065;51.050;13.758;2023-02-01T15:06:12;8.60;99.90
17879;DHT22;9065;51.050;13.758;2023-02-01T15:08:41;8.60;99.90
17879;DHT22;9065;51.050;13.758;2023-02-01T15:11:14;8.50;99.90
17879;DHT22;9065;51.050;13.758;2023-02-01T15:13:48;8.50;99.90
17879;DHT22;9065;51.050;13.758;2023-02-01T15:16:17;8.50;99.90
17879;DHT22;9065;51.050;13.758;2023-02-01T15:18:45;8.50;99.90
17879;DHT22;9065;51.050;13.758;2023-02-01T15:21:17;8.50;99.90
17879;DHT22;9065;51.050;13.758;2023-02-01T15:23:44;8.50;99.90
17879;DHT22;9065;51.050;13.758;2023-02-01T15:26:29;8.60;99.90
17879;DHT22;9065;51.050;13.758;2023-02-01T15:28:58;8.50;99.90
17879;DHT22;9065;51.050;13.758;2023-02-01T15:31:33;8.60;99.90
17879;DHT22;9065;51.050;13.758;2023-02-01T15:34:00;8.60;99.90
17879;DHT22;9065;51.050;13.758;2023-02-01T15:36:27;8.40;99.90
17879;DHT22;9065;51.050;13.758;2023-02-01T15:39:17;8.40;99.90
17879;DHT22;9065;51.050;13.758;2023-02-01T15:41:51;8.10;99.90
17879;DHT22;9065;51.050;13.758;2023-02-01T15:44:21;8.20;99.90
17879;DHT22;9065;51.050;13.758;2023-02-01T15:46:50;8.20;99.90
17879;DHT22;9065;51.050;13.758;2023-02-01T15:49:24;8.10;99.90
17879;DHT22;9065;51.050;13.758;2023-02-01T15:51:54;8.00;99.90
17879;DHT22;9065;51.050;13.758;2023-02-01T15:54:24;8.00;99.90
17879;DHT22;9065;51.050;13.758;2023-02-01T15:56:54;8.00;99.90
17879;DHT22;9065;51.050;13.758;2023-02-01T15:59:25;8.00;99.90
17879;DHT22;9065;51.050;13.758;2023-02-01T16:01:56;8.00;99.90
17879;DHT22;9065;51.050;13.758;2023-02-01T16:04:24;8.10;99.90
17879;DHT22;9065;51.050;13.758;2023-02-01T16:06:55;8.00;99.90
17879;DHT22;9065;51.050;13.758;2023-02-01T16:09:24;8.00;99.90
17879;DHT22;9065;51.050;13.758;2023-02-01T16:11:56;8.00;99.90
17879;DHT22;9065;51.050;13.758;2023-02-01T16:14:24;7.90;99.90
17879;DHT22;9065;51.050;13.758;2023-02-01T16:16:53;7.80;99.90
17879;DHT22;9065;51.050;13.758;2023-02-01T16:19:22;7.80;99.90
17879;DHT22;9065;51.050;13.758;2023-02-01T16:21:53;7.60;99.90
17879;DHT22;9065;51.050;13.758;2023-02-01T16:24:20;7.50;99.90
17879;DHT22;9065;51.050;13.758;2023-02-01T16:26:48;7.50;99.90
17879;DHT22;9065;51.050;13.758;2023-02-01T16:29:16;7.50;99.90
17879;DHT22;9065;51.050;13.758;2023-02-01T16:31:43;7.40;99.90
17879;DHT22;9065;51.050;13.758;2023-02-01T16:34:13;7.40;99.90
17879;DHT22;9065;51.050;13.758;2023-02-01T16:36:42;7.40;99.90
17879;DHT22;9065;51.050;13.758;2023-02-01T16:39:11;7.40;99.90
17879;DHT22;9065;51.050;13.758;2023-02-01T16:41:39;7.40;99.90